Lanigan, Canada
Current Conditions -  °F | °C
As of 1:00 PM on Thursday 30 Oct 2014 (Local Time) from CYXE Reporting Station
Overcast Overcast  
Wind Chill: 21°   Ceiling: 1600
Heat Index: 30°   Visibility: 15mi
Dew Point: 23°   Wind: 12mph
Humidity: 75%   Direction: 120°ESE
Pressure: 30.49"   Gusts: 18mph
Location:  51.85°N, 105.03°W
Report Text: CYXE 301900Z 12010G16KT 15SM OVC016 M01/M05 A3049 RMK SC8 SLP356
Loading
Personal Weather Stations






























Interactive Weather Map
Tropical Storm Tracking
New forecast layout! Learn more

10-Day Weather Forecast

Advertisements
Track Severe Weather on mobile